Hlavní strana
METAR-TAF:

METAR-TAF

Letiště :

Kinloss, Skotsko

zeměpisná šířka: 57-39N, zeměpisná délka: 003-34W, výška: 7 m

Aktuální stav počasí

Zpráva byla vytvořena před 58 minutami, v 15:50 UTC
Západojihozápadní vítr 7 kt
Teplota 11°C
Vlhkost vzduchu 87%
Tlak 1034 hPa
Viditelnost 10 km a více

METAR: EGQK 221550Z AUTO 25007KT 9999 SCT026/// SCT038/// BKN050/// 11/09 Q1034 RERA

Čas: 16:48 (16:48 UTC)


TAF: chybějící

Stav a předpovědi počasí z více než 4 000 letišť (zprávy METAR a TAF).

Červené a žluté tečky na mapě představují dostupné meteorologické stanice.

Když kurzor umístíte na tečku, zobrazí se název stanice.

Pak kliknutím zobrazíte stav a předpověď počasí.

Chcete-li změnit mapu, kliknutím na zelené tlačítko se znaménkem +mapu přiblížíte, kliknutím na zelené tlačítko se znaménkem – mapu oddálíte a kliknutím na zelené šipky přejdete na sousední mapy.


METAR-TAF: